Time;durP1;ratioP1;P1;durP2;ratioP2;P2;SDS_P1;SDS_P2;PMS_P1;PMS_P2;Temp;Humidity;BMP_temperature;BMP_pressure;BME280_temperature;BME280_humidity;BME280_pressure;Samples;Min_cycle;Max_cycle;Signal;HPM_P1;HPM_P2
2022/01/19 00:01:34;;;;;;;11.80;2.50;;;10.20;99.90;;;;;;5051594;28;20021;-69
2022/01/19 00:04:00;;;;;;;10.32;2.90;;;10.10;99.90;;;;;;5051308;28;20139;-71
2022/01/19 00:06:27;;;;;;;7.85;2.47;;;10.10;99.90;;;;;;5051122;28;20105;-71
2022/01/19 00:08:53;;;;;;;11.03;2.53;;;10.10;99.90;;;;;;5051421;28;20033;-71
2022/01/19 00:11:20;;;;;;;10.32;2.50;;;10.00;99.90;;;;;;5051466;28;20028;-71
2022/01/19 00:13:46;;;;;;;5.68;2.28;;;10.00;99.90;;;;;;5050320;28;20033;-71
2022/01/19 00:16:12;;;;;;;10.73;2.47;;;10.00;99.90;;;;;;5051130;28;20057;-71
2022/01/19 00:18:38;;;;;;;5.03;2.10;;;9.90;99.90;;;;;;5051147;28;20032;-72
2022/01/19 00:21:05;;;;;;;9.13;2.60;;;9.90;99.90;;;;;;5051540;28;20027;-71
2022/01/19 00:23:31;;;;;;;10.20;2.17;;;9.90;99.90;;;;;;5051033;28;20017;-71
2022/01/19 00:25:57;;;;;;;10.10;2.50;;;9.90;99.90;;;;;;5032947;28;20038;-71
2022/01/19 00:28:24;;;;;;;8.30;2.00;;;9.90;99.90;;;;;;5051313;28;20028;-71
2022/01/19 00:30:50;;;;;;;8.30;1.92;;;9.90;99.90;;;;;;5051231;28;20090;-71
2022/01/19 00:33:19;;;;;;;6.95;2.05;;;9.80;99.90;;;;;;5050993;28;20028;-70
2022/01/19 00:35:46;;;;;;;6.80;2.47;;;9.80;99.90;;;;;;5050676;28;20091;-72
2022/01/19 00:38:12;;;;;;;6.85;1.73;;;9.80;99.90;;;;;;5050809;28;20485;-71
2022/01/19 00:40:40;;;;;;;9.93;2.30;;;9.80;99.90;;;;;;5050620;28;20036;-70
2022/01/19 00:43:06;;;;;;;7.57;2.28;;;9.90;99.90;;;;;;5050780;28;20032;-71
2022/01/19 00:45:33;;;;;;;8.50;2.20;;;9.80;99.90;;;;;;5051004;28;20028;-70
2022/01/19 00:48:00;;;;;;;7.82;2.50;;;9.80;99.90;;;;;;5051038;28;20135;-70
2022/01/19 00:50:28;;;;;;;8.98;2.65;;;9.70;99.90;;;;;;5051136;28;20037;-72
2022/01/19 00:52:55;;;;;;;8.60;2.63;;;9.60;99.90;;;;;;5033246;28;20103;-71
2022/01/19 00:55:23;;;;;;;14.82;2.30;;;9.60;99.90;;;;;;5050726;28;20037;-71
2022/01/19 00:57:50;;;;;;;7.85;2.45;;;9.50;99.90;;;;;;5050623;28;20496;-72
2022/01/19 01:00:19;;;;;;;9.35;2.45;;;9.50;99.90;;;;;;5050667;28;20117;-71
2022/01/19 01:02:46;;;;;;;8.32;2.25;;;9.50;99.90;;;;;;5050776;28;20013;-70
2022/01/19 01:05:12;;;;;;;8.43;2.35;;;9.50;99.90;;;;;;5050725;28;20021;-70
2022/01/19 01:07:38;;;;;;;7.60;2.10;;;9.60;99.90;;;;;;5050307;28;20061;-70
2022/01/19 01:10:10;;;;;;;5.05;2.30;;;9.50;99.90;;;;;;5050760;28;20032;-66
2022/01/19 01:12:53;;;;;;;6.68;1.98;;;9.50;99.90;;;;;;5050811;28;20025;-71
2022/01/19 01:18:19;;;;;;;8.85;2.30;;;9.60;99.90;;;;;;5050456;28;20099;-71
2022/01/19 01:20:46;;;;;;;6.68;2.17;;;9.60;99.90;;;;;;5050864;28;20029;-71
2022/01/19 01:23:12;;;;;;;5.55;1.58;;;9.60;99.90;;;;;;5050743;28;20455;-71
2022/01/19 01:25:39;;;;;;;10.15;2.33;;;9.50;99.90;;;;;;5050631;28;20048;-72
2022/01/19 01:28:06;;;;;;;6.80;2.08;;;9.50;99.90;;;;;;5050421;28;20032;-72
2022/01/19 01:30:32;;;;;;;;;;;9.50;99.90;;;;;;5051032;28;20075;-72
2022/01/19 01:32:59;;;;;;;7.78;2.17;;;9.50;99.90;;;;;;5050414;28;19909;-71
2022/01/19 01:35:25;;;;;;;14.13;2.92;;;9.50;99.90;;;;;;5050142;28;20033;-71
2022/01/19 01:37:51;;;;;;;6.43;2.00;;;9.40;99.90;;;;;;5032521;28;20063;-71
2022/01/19 01:40:17;;;;;;;6.20;2.25;;;9.40;99.90;;;;;;5050276;28;20104;-71
2022/01/19 01:42:44;;;;;;;7.22;2.30;;;9.40;99.90;;;;;;5050230;28;20461;-72
2022/01/19 01:45:13;;;;;;;;;;;9.40;99.90;;;;;;5050540;28;20025;-70
2022/01/19 01:47:44;;;;;;;6.10;1.92;;;9.40;99.90;;;;;;5050023;28;19905;-70
2022/01/19 01:55:23;;;;;;;11.35;2.42;;;9.40;99.90;;;;;;5054024;28;20286;-72
2022/01/19 01:57:50;;;;;;;12.50;2.67;;;9.40;99.90;;;;;;5054145;28;20127;-72
2022/01/19 02:00:20;;;;;;;9.35;2.55;;;9.40;99.90;;;;;;5053660;28;20029;-71
2022/01/19 02:02:47;;;;;;;6.20;1.70;;;9.30;99.90;;;;;;5054024;28;20049;-72
2022/01/19 02:05:14;;;;;;;7.95;2.45;;;9.30;99.90;;;;;;5053625;28;20041;-71
2022/01/19 02:07:47;;;;;;;;;;;9.30;99.90;;;;;;5053835;28;20076;-70
2022/01/19 02:16:08;;;;;;;11.80;2.72;;;9.30;99.90;;;;;;5053364;28;20056;-70
2022/01/19 02:24:13;;;;;;;7.97;2.70;;;9.30;99.90;;;;;;5053276;28;20370;-70
2022/01/19 02:40:11;;;;;;;8.27;2.80;;;9.20;99.90;;;;;;5029359;28;20386;-72
2022/01/19 02:42:44;;;;;;;7.00;2.42;;;9.20;99.90;;;;;;5052978;28;20496;-71
2022/01/19 02:50:30;;;;;;;8.57;2.35;;;9.20;99.90;;;;;;5052952;28;20036;-71
2022/01/19 02:52:56;;;;;;;7.55;2.30;;;9.30;99.90;;;;;;5053049;28;20099;-71
2022/01/19 02:55:23;;;;;;;9.35;2.35;;;9.30;99.90;;;;;;5052663;28;20033;-72
2022/01/19 02:57:49;;;;;;;6.50;2.03;;;9.30;99.90;;;;;;5052578;28;20029;-71
2022/01/19 03:08:46;;;;;;;4.43;1.70;;;9.30;99.90;;;;;;5032675;28;20056;-70
2022/01/19 03:11:19;;;;;;;9.00;2.33;;;9.30;99.90;;;;;;5031002;28;20025;-71
2022/01/19 03:13:47;;;;;;;8.98;2.50;;;9.30;99.90;;;;;;5032588;28;20029;-71
2022/01/19 03:16:16;;;;;;;12.48;2.53;;;9.30;99.90;;;;;;5032387;28;20454;-70
2022/01/19 03:18:42;;;;;;;5.40;2.50;;;9.30;99.90;;;;;;5032713;28;20017;-71
2022/01/19 03:21:08;;;;;;;9.52;2.70;;;9.30;99.90;;;;;;5032227;28;20367;-72
2022/01/19 03:23:34;;;;;;;5.80;1.73;;;9.20;99.90;;;;;;5031727;28;20464;-71
2022/01/19 03:26:06;;;;;;;12.27;2.67;;;9.10;99.90;;;;;;5031468;28;20036;-71
2022/01/19 03:28:33;;;;;;;6.93;2.22;;;9.10;99.90;;;;;;5031721;28;20136;-72
2022/01/19 03:30:59;;;;;;;;;;;9.20;99.90;;;;;;5030247;28;20445;-71
2022/01/19 03:33:25;;;;;;;6.70;2.47;;;9.20;99.90;;;;;;5031313;28;19905;-70
2022/01/19 03:35:51;;;;;;;7.20;2.60;;;9.20;99.90;;;;;;5030978;28;20108;-72
2022/01/19 03:38:18;;;;;;;7.65;2.72;;;9.10;99.90;;;;;;5031464;28;20099;-71
2022/01/19 03:40:44;;;;;;;8.43;2.55;;;9.20;99.90;;;;;;5032110;28;20040;-71
2022/01/19 03:43:11;;;;;;;8.97;2.70;;;9.20;99.90;;;;;;5032294;28;20027;-71
2022/01/19 03:45:38;;;;;;;10.13;2.75;;;9.20;99.90;;;;;;5031763;28;20346;-71
2022/01/19 03:50:34;;;;;;;7.15;2.60;;;9.10;99.90;;;;;;5031924;28;20029;-71
2022/01/19 03:53:01;;;;;;;7.68;2.17;;;9.10;99.90;;;;;;5031791;28;20048;-71
2022/01/19 03:55:28;;;;;;;10.93;2.70;;;9.10;99.90;;;;;;5031981;28;20112;-71
2022/01/19 03:57:54;;;;;;;5.63;2.53;;;9.20;99.90;;;;;;5032369;28;20056;-70
2022/01/19 04:00:21;;;;;;;10.13;2.72;;;9.40;99.90;;;;;;5032410;28;20485;-71
2022/01/19 04:02:50;;;;;;;7.05;2.45;;;9.50;99.90;;;;;;5032023;28;20080;-70
2022/01/19 04:05:40;;;;;;;6.05;2.15;;;9.50;99.90;;;;;;5031735;28;20036;-72
2022/01/19 04:08:06;;;;;;;5.57;2.30;;;9.50;99.90;;;;;;5051377;28;20079;-72
2022/01/19 04:10:32;;;;;;;5.87;2.60;;;9.40;99.90;;;;;;5052325;28;20075;-71
2022/01/19 04:13:10;;;;;;;5.10;2.30;;;9.50;99.90;;;;;;5052470;28;20274;-71
2022/01/19 04:15:36;;;;;;;8.85;2.42;;;9.50;99.90;;;;;;5051872;28;20386;-71
2022/01/19 04:18:05;;;;;;;5.40;2.40;;;9.50;99.90;;;;;;5051994;28;20021;-71
2022/01/19 04:20:40;;;;;;;9.68;2.85;;;9.50;99.90;;;;;;5052224;28;20036;-72
2022/01/19 04:23:06;;;;;;;8.57;2.75;;;9.60;99.90;;;;;;5052525;28;20024;-70
2022/01/19 04:25:32;;;;;;;7.37;2.90;;;9.60;99.90;;;;;;5034419;28;20377;-71
2022/01/19 04:27:58;;;;;;;8.30;2.45;;;9.50;99.90;;;;;;5052224;28;20278;-71
2022/01/19 04:30:27;;;;;;;7.10;1.77;;;9.50;99.90;;;;;;5052796;28;20342;-71
2022/01/19 04:35:29;;;;;;;5.47;2.40;;;9.40;99.90;;;;;;5051486;28;20065;-71
2022/01/19 05:02:39;;;;;;;9.70;2.70;;;9.30;99.90;;;;;;5028248;28;20033;-69
2022/01/19 05:05:13;;;;;;;5.82;2.10;;;9.40;99.90;;;;;;5051600;28;20036;-71
2022/01/19 05:07:57;;;;;;;9.18;2.85;;;9.40;99.90;;;;;;5051749;28;20060;-71
2022/01/19 05:15:55;;;;;;;10.30;2.50;;;9.30;99.90;;;;;;5043460;28;20052;-70
2022/01/19 05:18:21;;;;;;;6.63;2.97;;;9.30;99.90;;;;;;5052500;28;20032;-71
2022/01/19 05:20:48;;;;;;;8.90;2.55;;;9.30;99.90;;;;;;5034729;28;20025;-71
2022/01/19 05:23:17;;;;;;;10.82;3.10;;;9.30;99.90;;;;;;5052891;28;20036;-70
2022/01/19 05:25:45;;;;;;;8.25;2.58;;;9.30;99.90;;;;;;5052987;28;20013;-71
2022/01/19 05:28:11;;;;;;;9.88;2.60;;;9.30;99.90;;;;;;5055595;28;20029;-72
2022/01/19 05:30:37;;;;;;;11.68;2.95;;;9.10;99.90;;;;;;5038681;28;20045;-71
2022/01/19 05:33:03;;;;;;;5.83;2.67;;;9.10;99.90;;;;;;5056437;28;20503;-69
2022/01/19 05:35:30;;;;;;;9.20;3.17;;;9.00;99.90;;;;;;5056733;28;20033;-70
2022/01/19 05:37:57;;;;;;;9.80;2.85;;;8.90;99.90;;;;;;5056252;28;20473;-71
2022/01/19 05:40:23;;;;;;;5.35;1.95;;;8.90;99.90;;;;;;5056460;28;20094;-71
2022/01/19 05:42:49;;;;;;;5.87;2.80;;;9.00;99.90;;;;;;5056252;28;20021;-71
2022/01/19 05:45:17;;;;;;;6.20;2.60;;;9.00;99.90;;;;;;5056059;28;20038;-70
2022/01/19 05:47:45;;;;;;;6.78;2.72;;;9.00;99.90;;;;;;5053239;28;20029;-70
2022/01/19 05:50:12;;;;;;;6.80;2.53;;;8.90;99.90;;;;;;5054144;28;20393;-71
2022/01/19 05:52:38;;;;;;;6.50;2.33;;;8.90;99.90;;;;;;5055237;28;20380;-71
2022/01/19 05:55:05;;;;;;;6.60;3.00;;;8.90;99.90;;;;;;5054583;28;20045;-71
2022/01/19 05:57:32;;;;;;;10.57;2.90;;;8.90;99.90;;;;;;5055848;28;20385;-71
2022/01/19 05:59:58;;;;;;;11.63;3.13;;;8.80;99.90;;;;;;5055898;28;20017;-72
2022/01/19 06:02:25;;;;;;;11.60;2.67;;;8.80;99.90;;;;;;5056392;28;20106;-71
2022/01/19 06:04:51;;;;;;;7.47;2.30;;;8.80;99.90;;;;;;5055637;28;20151;-71
2022/01/19 06:07:17;;;;;;;13.50;3.15;;;8.90;99.90;;;;;;5055319;28;20045;-71
2022/01/19 06:12:11;;;;;;;11.00;2.83;;;8.90;99.90;;;;;;5054906;28;20029;-71
2022/01/19 06:14:39;;;;;;;7.95;2.83;;;8.90;99.90;;;;;;5054976;28;20060;-71
2022/01/19 06:17:07;;;;;;;10.35;2.80;;;8.90;99.90;;;;;;5054936;28;20040;-71
2022/01/19 06:19:34;;;;;;;7.28;2.70;;;9.00;99.90;;;;;;5055315;28;20031;-70
2022/01/19 06:22:00;;;;;;;7.53;2.72;;;9.00;99.90;;;;;;5055891;28;20096;-70
2022/01/19 06:24:27;;;;;;;9.27;3.42;;;9.10;99.90;;;;;;5055586;28;20037;-70
2022/01/19 06:26:54;;;;;;;7.43;2.45;;;9.00;99.90;;;;;;5053591;28;20033;-72
2022/01/19 06:29:21;;;;;;;8.77;2.85;;;9.10;99.90;;;;;;5054436;28;20037;-70
2022/01/19 06:31:47;;;;;;;9.20;2.60;;;9.00;99.90;;;;;;5054541;28;20465;-70
2022/01/19 06:34:14;;;;;;;8.32;2.60;;;9.00;99.90;;;;;;5055083;28;20133;-71
2022/01/19 06:36:40;;;;;;;11.25;2.80;;;9.00;99.90;;;;;;5055434;28;20031;-71
2022/01/19 06:39:06;;;;;;;9.47;2.90;;;9.20;99.90;;;;;;5053602;28;20100;-70
2022/01/19 06:41:33;;;;;;;10.02;2.90;;;9.40;99.90;;;;;;5055315;28;20078;-71
2022/01/19 06:43:59;;;;;;;9.75;3.00;;;9.70;99.90;;;;;;5054522;28;20167;-72
2022/01/19 06:46:25;;;;;;;11.15;3.00;;;10.00;99.90;;;;;;5054310;28;20048;-72
2022/01/19 06:48:51;;;;;;;8.82;3.28;;;10.30;99.90;;;;;;5054001;28;20025;-72
2022/01/19 06:51:17;;;;;;;11.23;3.07;;;10.70;99.90;;;;;;5053419;28;20115;-73
2022/01/19 06:53:43;;;;;;;9.77;3.85;;;11.10;99.90;;;;;;5053352;28;20042;-68
2022/01/19 06:56:10;;;;;;;9.10;3.90;;;11.40;99.90;;;;;;5053656;28;20040;-73
2022/01/19 06:58:36;;;;;;;7.72;3.17;;;11.50;99.90;;;;;;5034792;28;20033;-71
2022/01/19 07:01:02;;;;;;;9.90;3.40;;;11.60;99.90;;;;;;5053859;28;20025;-72
2022/01/19 07:03:28;;;;;;;12.47;3.83;;;11.80;99.90;;;;;;5034805;28;20098;-70
2022/01/19 07:05:54;;;;;;;7.55;2.80;;;12.00;99.90;;;;;;5053106;28;20037;-72
2022/01/19 07:08:20;;;;;;;12.03;3.73;;;12.00;99.90;;;;;;5053255;28;20035;-72
2022/01/19 07:10:46;;;;;;;6.95;3.20;;;12.20;99.90;;;;;;5052843;28;20057;-73
2022/01/19 07:13:13;;;;;;;12.47;3.07;;;12.30;99.90;;;;;;5053506;28;20021;-72
2022/01/19 07:15:40;;;;;;;13.73;3.50;;;12.80;99.90;;;;;;5053003;28;20330;-72
2022/01/19 07:18:07;;;;;;;8.57;3.05;;;13.00;99.90;;;;;;5053695;28;20083;-72
2022/01/19 07:20:33;;;;;;;8.48;3.42;;;13.30;99.90;;;;;;5053363;28;20029;-72
2022/01/19 07:23:01;;;;;;;10.33;3.23;;;13.20;99.90;;;;;;5053403;28;20052;-70
2022/01/19 07:25:28;;;;;;;12.15;3.05;;;13.50;99.90;;;;;;5053175;28;20036;-72
2022/01/19 07:27:55;;;;;;;7.80;2.72;;;13.60;99.90;;;;;;5053291;28;20044;-71
2022/01/19 07:30:22;;;;;;;6.40;2.70;;;14.00;99.90;;;;;;5053426;28;20021;-72
2022/01/19 07:32:49;;;;;;;7.03;2.60;;;14.20;99.60;;;;;;5052993;28;20040;-71
2022/01/19 07:35:16;;;;;;;9.20;2.90;;;14.30;99.30;;;;;;5052902;28;20096;-72
2022/01/19 07:37:43;;;;;;;;;;;14.30;99.50;;;;;;5053439;28;20028;-72
2022/01/19 07:40:10;;;;;;;10.30;2.40;;;14.40;99.40;;;;;;5053403;28;19912;-72
2022/01/19 07:42:35;;;;;;;;;;;14.60;98.80;;;;;;5053367;28;20453;-73
2022/01/19 07:45:02;;;;;;;9.55;2.95;;;14.70;98.40;;;;;;5053214;28;19916;-73
2022/01/19 07:47:28;;;;;;;6.80;2.75;;;14.70;98.70;;;;;;5052792;28;20155;-71
2022/01/19 07:49:57;;;;;;;9.25;3.20;;;14.80;98.20;;;;;;5052067;28;20032;-77
2022/01/19 07:52:25;;;;;;;7.47;3.10;;;14.60;98.70;;;;;;5051501;28;20091;-72
2022/01/19 07:54:52;;;;;;;7.68;3.20;;;14.60;99.00;;;;;;5032443;28;20118;-72
2022/01/19 07:57:18;;;;;;;10.82;3.38;;;14.50;99.20;;;;;;5051659;28;20029;-74
2022/01/19 07:59:45;;;;;;;9.88;3.10;;;14.30;99.40;;;;;;5052905;28;20513;-73
2022/01/19 08:02:14;;;;;;;9.10;3.17;;;14.10;99.50;;;;;;5053234;28;20370;-73
2022/01/19 08:04:40;;;;;;;11.20;3.58;;;13.80;99.60;;;;;;5052954;28;20366;-74
2022/01/19 08:07:07;;;;;;;9.10;3.53;;;13.60;99.80;;;;;;5052381;28;20049;-71
2022/01/19 08:09:34;;;;;;;10.52;3.17;;;13.40;99.90;;;;;;5052070;28;20025;-72
2022/01/19 08:12:00;;;;;;;8.00;3.30;;;13.30;99.90;;;;;;5052736;28;20028;-72
2022/01/19 08:14:26;;;;;;;8.50;3.38;;;13.20;99.90;;;;;;5052408;28;20067;-72
2022/01/19 08:16:54;;;;;;;10.88;3.20;;;13.20;99.90;;;;;;5052415;28;20136;-73
2022/01/19 08:19:20;;;;;;;8.23;3.72;;;13.30;99.90;;;;;;5034225;28;20112;-73
2022/01/19 08:21:47;;;;;;;10.30;3.78;;;13.30;99.90;;;;;;5051994;28;20020;-72
2022/01/19 08:24:13;;;;;;;8.90;3.85;;;13.40;99.90;;;;;;5052235;28;20129;-72
2022/01/19 08:26:40;;;;;;;10.30;3.58;;;13.50;99.90;;;;;;5051670;28;20037;-71
2022/01/19 08:29:06;;;;;;;9.77;3.92;;;13.50;99.90;;;;;;5052051;28;20414;-71
2022/01/19 08:31:33;;;;;;;15.77;3.90;;;13.60;99.90;;;;;;5034098;28;20029;-71
2022/01/19 08:33:59;;;;;;;13.40;4.70;;;13.70;99.90;;;;;;5050762;28;20039;-72
2022/01/19 08:36:27;;;;;;;19.90;5.78;;;13.90;99.90;;;;;;5051825;28;20032;-71
2022/01/19 08:38:55;;;;;;;12.00;5.35;;;13.80;99.90;;;;;;5051540;28;20040;-71
2022/01/19 08:41:21;;;;;;;16.13;4.82;;;13.80;99.90;;;;;;5051982;28;20106;-72
2022/01/19 08:43:47;;;;;;;12.30;4.53;;;13.80;99.90;;;;;;5051929;28;20033;-71
2022/01/19 08:46:13;;;;;;;12.38;4.80;;;13.90;99.90;;;;;;5052120;28;20102;-71
2022/01/19 08:48:40;;;;;;;9.87;4.10;;;13.90;99.90;;;;;;5051897;28;20028;-72
2022/01/19 08:51:06;;;;;;;13.87;4.77;;;14.10;99.90;;;;;;5051750;28;20025;-72
2022/01/19 08:53:33;;;;;;;15.75;4.10;;;14.10;99.90;;;;;;5051978;28;20028;-73
2022/01/19 08:55:59;;;;;;;12.25;4.10;;;14.10;99.90;;;;;;5051900;28;20462;-72
2022/01/19 08:58:26;;;;;;;14.20;4.95;;;14.20;99.90;;;;;;5051801;28;20021;-71
2022/01/19 09:00:52;;;;;;;11.93;4.72;;;14.30;99.90;;;;;;5051449;28;20024;-73
2022/01/19 09:03:19;;;;;;;14.35;4.43;;;14.30;99.90;;;;;;5050672;28;20097;-72
2022/01/19 09:05:45;;;;;;;12.18;4.05;;;14.40;99.90;;;;;;5051048;28;20033;-71
2022/01/19 09:08:12;;;;;;;10.60;3.58;;;14.50;99.90;;;;;;5050910;28;20044;-71
2022/01/19 09:10:40;;;;;;;9.75;3.90;;;14.40;99.90;;;;;;5051518;28;20033;-73
2022/01/19 09:13:07;;;;;;;13.18;3.38;;;14.50;99.90;;;;;;5051533;28;20060;-73
2022/01/19 09:15:33;;;;;;;;;;;14.40;99.90;;;;;;5051872;28;20091;-71
2022/01/19 09:17:59;;;;;;;8.00;3.47;;;14.50;99.90;;;;;;5052274;28;19905;-71
2022/01/19 09:20:26;;;;;;;10.60;3.60;;;14.50;99.90;;;;;;5052166;28;20070;-71
2022/01/19 09:22:52;;;;;;;8.68;3.13;;;14.60;99.90;;;;;;5051792;28;20377;-71
2022/01/19 09:25:18;;;;;;;7.95;2.92;;;14.70;99.90;;;;;;5051786;28;20495;-71
2022/01/19 09:27:44;;;;;;;10.55;3.67;;;14.80;99.90;;;;;;5033964;28;20022;-71
2022/01/19 09:30:16;;;;;;;12.33;3.40;;;15.00;99.90;;;;;;5052096;28;20029;-72
2022/01/19 09:32:54;;;;;;;7.10;3.00;;;15.40;99.90;;;;;;5052000;28;20342;-72
2022/01/19 09:35:24;;;;;;;8.52;3.40;;;15.50;99.90;;;;;;5051496;28;20044;-72
2022/01/19 09:37:52;;;;;;;11.95;3.92;;;15.70;99.90;;;;;;5051086;28;20486;-69
2022/01/19 09:40:18;;;;;;;11.40;3.22;;;15.90;99.90;;;;;;5051611;28;20037;-71
2022/01/19 09:42:48;;;;;;;12.05;3.33;;;16.10;99.90;;;;;;5051434;28;20025;-71
2022/01/19 09:45:14;;;;;;;9.15;3.38;;;16.10;99.90;;;;;;5051983;28;20120;-72
2022/01/19 09:47:41;;;;;;;11.43;3.30;;;16.00;99.90;;;;;;5051717;28;20040;-72
2022/01/19 09:50:07;;;;;;;10.48;3.63;;;16.00;99.90;;;;;;5051220;28;20025;-72
2022/01/19 09:52:37;;;;;;;14.07;3.92;;;16.00;99.90;;;;;;5051516;28;20124;-72
2022/01/19 09:55:04;;;;;;;14.95;3.42;;;16.20;99.90;;;;;;5051123;28;20393;-71
2022/01/19 09:57:33;;;;;;;11.73;3.63;;;16.40;99.90;;;;;;5051511;28;20059;-72
2022/01/19 09:59:59;;;;;;;11.02;4.38;;;16.60;99.60;;;;;;5051033;28;20550;-73
2022/01/19 10:02:25;;;;;;;8.73;3.50;;;16.50;99.80;;;;;;5033220;28;20561;-73
2022/01/19 10:04:51;;;;;;;11.43;3.38;;;16.70;99.90;;;;;;5051621;28;20264;-72
2022/01/19 10:07:26;;;;;;;7.40;3.28;;;16.90;99.40;;;;;;5050992;28;20087;-71
2022/01/19 10:10:02;;;;;;;14.30;3.55;;;16.90;99.40;;;;;;5051032;28;20021;-73
2022/01/19 10:18:21;;;;;;;16.00;4.32;;;16.60;99.40;;;;;;5054762;28;20106;-72
2022/01/19 10:20:48;;;;;;;;;;;16.50;99.90;;;;;;5054938;28;20442;-72
2022/01/19 10:23:52;;;;;;;9.60;3.70;;;16.50;99.90;;;;;;5054005;28;19904;-72
2022/01/19 10:26:26;;;;;;;9.13;3.08;;;16.90;99.30;;;;;;4974015;28;20400;-72
2022/01/19 10:28:57;;;;;;;11.25;2.90;;;17.00;99.30;;;;;;4973973;28;20035;-71
2022/01/19 10:31:23;;;;;;;10.82;3.50;;;17.20;99.60;;;;;;4973434;28;20034;-72
2022/01/19 10:34:22;;;;;;;12.57;3.60;;;17.30;99.40;;;;;;4973901;28;20472;-72
2022/01/19 10:36:56;;;;;;;11.73;3.55;;;17.50;99.30;;;;;;4916133;29;20071;-72
2022/01/19 10:39:25;;;;;;;18.10;4.60;;;17.30;99.40;;;;;;4916386;29;20488;-72
2022/01/19 10:41:57;;;;;;;15.77;4.30;;;17.50;99.60;;;;;;4900409;29;20067;-72
2022/01/19 10:44:38;;;;;;;14.98;4.30;;;17.30;99.60;;;;;;4915730;29;20025;-72
2022/01/19 10:47:05;;;;;;;13.20;3.38;;;17.30;99.30;;;;;;4915949;29;20040;-72
2022/01/19 10:49:52;;;;;;;9.90;3.58;;;17.40;99.00;;;;;;4915760;29;20077;-72
2022/01/19 10:52:36;;;;;;;16.17;4.85;;;17.20;99.00;;;;;;4915711;29;20123;-71
2022/01/19 10:55:06;;;;;;;14.02;3.72;;;17.20;99.90;;;;;;4915570;29;20114;-73
2022/01/19 10:57:34;;;;;;;11.07;3.60;;;17.30;99.60;;;;;;4916459;29;20475;-71
2022/01/19 11:00:20;;;;;;;14.68;3.95;;;17.20;99.00;;;;;;4931775;29;20071;-72
2022/01/19 11:02:49;;;;;;;14.40;3.75;;;17.00;99.80;;;;;;4953782;29;20031;-71
2022/01/19 11:05:17;;;;;;;10.23;3.50;;;16.80;99.90;;;;;;4952367;29;20087;-71
2022/01/19 11:07:43;;;;;;;9.57;3.63;;;16.90;99.90;;;;;;4951929;29;20194;-72
2022/01/19 11:10:13;;;;;;;8.48;3.13;;;16.90;99.90;;;;;;4952985;29;20451;-71
2022/01/19 11:12:46;;;;;;;12.85;3.42;;;17.20;99.70;;;;;;4990770;28;20072;-71
2022/01/19 11:15:15;;;;;;;8.35;3.70;;;17.40;99.50;;;;;;5013776;28;20092;-72
2022/01/19 11:17:42;;;;;;;13.05;3.60;;;17.50;99.30;;;;;;5013522;28;20033;-73
2022/01/19 11:20:15;;;;;;;6.80;3.20;;;17.70;99.70;;;;;;5029536;28;20159;-72
2022/01/19 11:23:13;;;;;;;13.40;4.43;;;17.80;99.60;;;;;;5034083;28;20053;-72
2022/01/19 11:26:09;;;;;;;13.15;3.90;;;17.70;99.40;;;;;;5033196;28;20074;-73
2022/01/19 11:28:44;;;;;;;13.73;3.88;;;17.40;99.60;;;;;;5033766;28;20060;-72
2022/01/19 11:31:14;;;;;;;11.27;3.63;;;17.30;99.90;;;;;;5033484;28;20036;-71
2022/01/19 11:33:51;;;;;;;8.23;2.97;;;17.60;99.90;;;;;;5033662;28;20032;-72
2022/01/19 11:36:31;;;;;;;10.95;3.35;;;17.80;99.80;;;;;;5033423;28;20052;-71
2022/01/19 11:39:11;;;;;;;5.93;2.75;;;17.80;99.40;;;;;;5033150;28;20032;-72
2022/01/19 11:41:45;;;;;;;15.70;3.55;;;17.80;99.50;;;;;;5033374;28;20030;-71
2022/01/19 11:44:28;;;;;;;10.52;2.95;;;17.90;99.60;;;;;;5033257;28;20061;-72
2022/01/19 11:46:57;;;;;;;8.77;3.15;;;17.70;99.50;;;;;;5033232;28;20447;-71
2022/01/19 11:49:44;;;;;;;13.50;3.30;;;17.70;99.30;;;;;;5032985;28;20339;-72
2022/01/19 11:52:11;;;;;;;7.53;2.70;;;17.80;99.30;;;;;;5032754;28;20030;-71
2022/01/19 11:54:37;;;;;;;8.25;2.97;;;17.90;99.00;;;;;;5033203;28;20497;-72
2022/01/19 11:57:07;;;;;;;9.10;2.90;;;18.00;98.90;;;;;;5033139;28;20405;-71
2022/01/19 11:59:53;;;;;;;8.45;2.97;;;17.90;98.50;;;;;;5032909;28;20040;-73
2022/01/19 12:02:26;;;;;;;8.68;2.95;;;18.10;99.10;;;;;;5019882;28;20029;-72
2022/01/19 12:04:58;;;;;;;15.68;2.88;;;18.00;99.80;;;;;;5031874;28;20033;-72
2022/01/19 12:07:39;;;;;;;15.07;3.35;;;17.90;99.00;;;;;;5044914;28;20112;-71
2022/01/19 12:10:12;;;;;;;7.40;2.55;;;17.90;98.50;;;;;;5051796;28;20033;-73
2022/01/19 12:12:46;;;;;;;9.05;2.95;;;17.80;98.70;;;;;;5052500;28;20094;-72
2022/01/19 12:15:49;;;;;;;12.95;3.30;;;17.60;98.80;;;;;;5051469;28;20044;-71
2022/01/19 12:18:50;;;;;;;7.70;2.47;;;17.70;99.00;;;;;;5050550;28;20112;-72
2022/01/19 12:21:39;;;;;;;7.03;2.50;;;17.90;98.70;;;;;;4971656;28;20042;-72
2022/01/19 12:24:26;;;;;;;9.50;2.45;;;18.00;98.20;;;;;;4970250;28;20047;-71
2022/01/19 12:27:04;;;;;;;7.30;2.50;;;18.00;98.20;;;;;;4951666;29;20077;-72
2022/01/19 12:29:38;;;;;;;9.02;2.90;;;17.70;98.60;;;;;;4951356;29;20031;-72
2022/01/19 12:32:29;;;;;;;8.07;2.50;;;17.80;98.80;;;;;;4951320;29;20126;-73
2022/01/19 12:35:10;;;;;;;11.85;2.90;;;17.60;97.90;;;;;;4951500;29;20039;-71
2022/01/19 12:37:47;;;;;;;11.20;3.00;;;17.30;99.90;;;;;;4952025;28;20036;-72
2022/01/19 12:40:21;;;;;;;9.18;2.65;;;17.50;98.80;;;;;;4952069;29;20354;-72
2022/01/19 12:42:57;;;;;;;11.75;2.28;;;17.70;98.40;;;;;;4952157;29;20441;-71
2022/01/19 12:45:28;;;;;;;9.30;2.72;;;17.80;97.70;;;;;;4952283;29;20031;-71
2022/01/19 12:47:56;;;;;;;8.38;2.25;;;17.80;97.90;;;;;;4952086;29;20046;-71
2022/01/19 12:50:28;;;;;;;6.18;2.40;;;17.60;98.40;;;;;;4951405;29;20122;-72
2022/01/19 12:53:01;;;;;;;9.45;2.78;;;17.70;98.30;;;;;;4951338;29;20155;-72
2022/01/19 12:55:32;;;;;;;9.65;2.70;;;17.70;97.90;;;;;;4951122;29;20039;-72
2022/01/19 12:58:00;;;;;;;7.82;2.30;;;17.70;98.10;;;;;;5030356;28;20040;-73
2022/01/19 13:00:31;;;;;;;7.53;2.40;;;17.60;97.90;;;;;;5030636;28;20113;-72
2022/01/19 13:02:58;;;;;;;12.35;2.92;;;17.80;98.30;;;;;;5031859;28;20109;-73
2022/01/19 13:05:28;;;;;;;;;;;17.60;98.70;;;;;;5032599;28;20033;-73
2022/01/19 13:07:59;;;;;;;9.32;2.38;;;17.50;98.80;;;;;;5031774;28;19932;-73
2022/01/19 13:10:48;;;;;;;9.27;2.80;;;17.40;98.70;;;;;;5014163;28;20026;-73
2022/01/19 13:15:49;;;;;;;7.38;2.85;;;17.10;99.60;;;;;;5032152;28;20033;-71
2022/01/19 13:18:36;;;;;;;6.13;2.45;;;17.20;99.70;;;;;;5032332;28;20022;-71
2022/01/19 13:21:17;;;;;;;9.05;2.78;;;17.10;99.20;;;;;;5033221;28;20032;-72
2022/01/19 13:23:57;;;;;;;9.48;2.55;;;16.60;99.10;;;;;;5033100;28;20029;-73
2022/01/19 13:26:25;;;;;;;12.38;3.00;;;16.60;99.80;;;;;;5032993;28;20021;-74
2022/01/19 13:28:51;;;;;;;9.68;2.80;;;16.60;99.90;;;;;;5032438;28;20167;-72
2022/01/19 13:31:23;;;;;;;10.38;2.80;;;16.80;99.70;;;;;;5032802;28;20026;-72
2022/01/19 13:33:56;;;;;;;9.35;2.70;;;17.00;99.80;;;;;;5032507;28;20025;-73
2022/01/19 13:36:34;;;;;;;7.72;2.42;;;17.10;99.20;;;;;;5033182;28;20108;-73
2022/01/19 13:39:02;;;;;;;10.77;2.55;;;17.20;99.00;;;;;;5032554;28;20028;-72
2022/01/19 13:41:28;;;;;;;14.35;2.78;;;17.30;98.60;;;;;;5032533;28;20112;-73
2022/01/19 13:44:02;;;;;;;9.90;2.75;;;16.80;99.10;;;;;;5032535;28;20025;-73
2022/01/19 13:46:30;;;;;;;8.02;2.85;;;16.80;99.50;;;;;;5032374;28;20041;-73
2022/01/19 13:49:00;;;;;;;6.30;2.28;;;16.90;99.50;;;;;;5034512;28;20040;-71
2022/01/19 13:51:29;;;;;;;15.32;2.50;;;17.00;99.30;;;;;;5036394;28;20037;-72
2022/01/19 13:54:00;;;;;;;9.50;2.90;;;16.90;98.50;;;;;;5035900;28;20080;-72
2022/01/19 13:56:32;;;;;;;9.05;2.40;;;16.90;98.50;;;;;;5036221;28;20080;-71
2022/01/19 13:59:14;;;;;;;8.80;2.80;;;16.90;99.10;;;;;;5036262;28;20171;-73
2022/01/19 14:01:48;;;;;;;13.85;3.05;;;17.10;98.80;;;;;;5035870;28;20030;-72
2022/01/19 14:04:15;;;;;;;9.65;2.80;;;17.20;98.50;;;;;;5035927;28;20063;-72
2022/01/19 14:06:43;;;;;;;8.40;2.58;;;17.10;98.60;;;;;;5035819;28;20045;-72
2022/01/19 14:09:27;;;;;;;10.63;2.72;;;17.00;98.70;;;;;;5035688;28;20481;-73
2022/01/19 14:12:11;;;;;;;9.48;2.97;;;17.00;98.80;;;;;;5035841;28;20070;-72
2022/01/19 14:14:43;;;;;;;9.35;3.15;;;17.00;99.10;;;;;;5035379;28;20477;-74
2022/01/19 14:17:22;;;;;;;8.45;2.78;;;16.80;99.30;;;;;;5034939;28;20078;-71
2022/01/19 14:19:50;;;;;;;9.18;2.70;;;17.00;99.50;;;;;;5035788;28;20386;-72
2022/01/19 14:22:22;;;;;;;7.60;2.25;;;16.90;99.00;;;;;;5035844;28;20037;-72
2022/01/19 14:25:07;;;;;;;8.13;2.90;;;16.90;98.80;;;;;;5035469;28;20041;-73
2022/01/19 14:27:39;;;;;;;6.35;2.80;;;16.70;98.50;;;;;;5035557;28;20037;-73
2022/01/19 14:30:13;;;;;;;11.68;3.17;;;16.50;99.00;;;;;;5035472;28;20030;-71
2022/01/19 14:32:46;;;;;;;9.68;2.78;;;16.60;99.90;;;;;;5036025;28;20032;-73
2022/01/19 14:35:36;;;;;;;5.63;2.50;;;16.80;99.00;;;;;;5035374;28;20091;-71
2022/01/19 14:38:25;;;;;;;11.57;2.63;;;16.90;98.20;;;;;;5035656;28;20035;-71